createdAt,value
2022-10-05T00:01:29.383Z,99.90
2022-10-05T00:04:06.493Z,99.90
2022-10-05T00:06:33.917Z,99.90
2022-10-05T00:09:01.595Z,99.90
2022-10-05T00:11:28.970Z,99.90
2022-10-05T00:13:56.350Z,99.90
2022-10-05T00:16:23.756Z,99.90
2022-10-05T00:18:53.481Z,99.90
2022-10-05T00:21:22.596Z,99.90
2022-10-05T00:23:50.689Z,99.90
2022-10-05T00:26:26.578Z,99.90
2022-10-05T00:28:54.944Z,99.90
2022-10-05T00:31:33.335Z,99.90
2022-10-05T00:34:00.817Z,99.90
2022-10-05T00:36:28.196Z,99.90
2022-10-05T00:38:55.802Z,99.90
2022-10-05T00:41:58.322Z,99.90
2022-10-05T00:44:47.092Z,99.90
2022-10-05T00:47:37.005Z,99.90
2022-10-05T00:50:36.680Z,99.90
2022-10-05T00:53:36.038Z,99.90
2022-10-05T00:56:06.367Z,99.90
2022-10-05T00:58:52.326Z,99.90
2022-10-05T01:01:43.659Z,99.90
2022-10-05T01:04:20.432Z,99.90
2022-10-05T01:06:53.019Z,99.90
2022-10-05T01:09:33.056Z,99.90
2022-10-05T01:12:03.338Z,99.90
2022-10-05T01:14:57.338Z,99.90
2022-10-05T01:17:39.192Z,99.90
2022-10-05T01:20:31.079Z,99.90
2022-10-05T01:23:01.088Z,99.90
2022-10-05T01:25:55.843Z,99.90
2022-10-05T01:28:38.349Z,99.90
2022-10-05T01:31:30.327Z,99.90
2022-10-05T01:34:21.231Z,99.90
2022-10-05T01:36:56.750Z,99.90
2022-10-05T01:39:30.049Z,99.90
2022-10-05T01:42:00.090Z,99.90
2022-10-05T01:44:39.926Z,99.90
2022-10-05T01:47:21.975Z,99.90
2022-10-05T01:50:11.481Z,99.90
2022-10-05T01:52:56.409Z,99.90
2022-10-05T01:55:42.353Z,99.90
2022-10-05T01:58:09.641Z,99.90
2022-10-05T02:00:59.672Z,99.90
2022-10-05T02:03:54.002Z,99.90
2022-10-05T02:06:25.571Z,99.90
2022-10-05T02:08:59.082Z,99.90
2022-10-05T02:11:26.461Z,99.90
2022-10-05T02:13:59.407Z,99.90
2022-10-05T02:16:37.507Z,99.90
2022-10-05T02:19:27.570Z,99.90
2022-10-05T02:22:26.506Z,99.90
2022-10-05T02:25:01.736Z,99.90
2022-10-05T02:27:33.030Z,99.90
2022-10-05T02:30:05.639Z,99.90
2022-10-05T02:32:42.799Z,99.90
2022-10-05T02:35:17.783Z,99.90
2022-10-05T02:38:06.085Z,99.90
2022-10-05T02:41:06.455Z,99.90
2022-10-05T02:44:01.975Z,99.90
2022-10-05T02:46:49.199Z,99.90
2022-10-05T02:49:38.603Z,99.90
2022-10-05T02:52:16.972Z,99.90
2022-10-05T02:55:27.788Z,99.90
2022-10-05T02:58:13.035Z,99.90
2022-10-05T03:01:06.781Z,99.90
2022-10-05T03:03:43.582Z,99.90
2022-10-05T03:06:21.822Z,99.90
2022-10-05T03:09:05.023Z,99.90
2022-10-05T03:11:32.378Z,99.90
2022-10-05T03:14:13.592Z,99.90
2022-10-05T03:16:59.381Z,99.90
2022-10-05T03:19:29.184Z,99.90
2022-10-05T03:21:59.330Z,99.90
2022-10-05T03:24:59.853Z,99.90
2022-10-05T03:27:41.058Z,99.90
2022-10-05T03:30:16.605Z,99.90
2022-10-05T03:33:03.105Z,99.90
2022-10-05T03:35:38.706Z,99.90
2022-10-05T03:38:16.466Z,99.90
2022-10-05T03:40:59.531Z,99.90
2022-10-05T03:43:50.409Z,99.90
2022-10-05T03:46:39.083Z,99.90
2022-10-05T03:49:28.493Z,99.90
2022-10-05T03:52:03.439Z,99.90
2022-10-05T03:54:36.602Z,99.90
2022-10-05T03:57:09.026Z,99.90
2022-10-05T04:00:06.146Z,99.90
2022-10-05T04:03:00.740Z,99.90
2022-10-05T04:05:33.471Z,99.90
2022-10-05T04:08:31.204Z,99.90
2022-10-05T04:11:10.371Z,99.90
2022-10-05T04:13:49.875Z,99.90
2022-10-05T04:16:30.228Z,99.90
2022-10-05T04:19:16.125Z,99.90
2022-10-05T04:21:59.369Z,99.90
2022-10-05T04:24:39.677Z,99.90
2022-10-05T04:27:16.507Z,99.90
2022-10-05T04:30:16.390Z,99.90
2022-10-05T04:32:48.141Z,99.90
2022-10-05T04:35:41.642Z,99.90
2022-10-05T04:38:26.964Z,99.90
2022-10-05T04:41:16.384Z,99.90
2022-10-05T04:44:02.214Z,99.90
2022-10-05T04:47:06.628Z,99.90
2022-10-05T04:49:58.332Z,99.90
2022-10-05T04:52:55.110Z,99.90
2022-10-05T04:55:31.182Z,99.90
2022-10-05T04:58:18.159Z,99.90
2022-10-05T05:00:45.541Z,99.90
2022-10-05T05:03:21.696Z,99.90
2022-10-05T05:06:25.698Z,99.90
2022-10-05T05:09:24.658Z,99.90
2022-10-05T05:12:11.943Z,99.90
2022-10-05T05:15:09.684Z,99.90
2022-10-05T05:18:01.049Z,99.90
2022-10-05T05:20:37.662Z,99.90
2022-10-05T05:23:04.982Z,99.90
2022-10-05T05:25:56.974Z,99.90
2022-10-05T05:28:42.681Z,99.90
2022-10-05T05:31:20.224Z,99.90
2022-10-05T05:34:16.949Z,99.90
2022-10-05T05:36:49.727Z,99.90
2022-10-05T05:39:19.936Z,99.90
2022-10-05T05:41:58.697Z,99.90
2022-10-05T05:44:38.551Z,99.90
2022-10-05T05:47:20.765Z,99.90
2022-10-05T05:50:07.582Z,99.90
2022-10-05T05:52:45.938Z,99.90
2022-10-05T05:55:52.171Z,99.90
2022-10-05T05:58:25.067Z,99.90
2022-10-05T06:01:01.360Z,99.90
2022-10-05T06:03:34.211Z,99.90
2022-10-05T06:06:06.962Z,99.90
2022-10-05T06:08:47.692Z,99.90
2022-10-05T06:11:16.792Z,99.90
2022-10-05T06:13:45.009Z,99.90
2022-10-05T06:16:39.322Z,99.90
2022-10-05T06:19:14.267Z,99.90
2022-10-05T06:22:06.167Z,99.90
2022-10-05T06:24:45.032Z,99.90
2022-10-05T06:27:38.230Z,99.90
2022-10-05T06:30:15.791Z,99.90
2022-10-05T06:33:24.196Z,99.90
2022-10-05T06:36:12.229Z,99.90
2022-10-05T06:38:39.669Z,99.90
2022-10-05T06:41:15.737Z,99.90
2022-10-05T06:44:08.489Z,99.90
2022-10-05T06:47:06.258Z,99.90
2022-10-05T06:49:52.117Z,99.90
2022-10-05T06:52:38.357Z,99.90
2022-10-05T06:55:30.499Z,99.90
2022-10-05T06:58:26.505Z,99.90
2022-10-05T07:01:15.395Z,99.90
2022-10-05T07:04:04.703Z,99.90
2022-10-05T07:06:40.479Z,99.90
2022-10-05T07:09:20.948Z,99.90
2022-10-05T07:11:59.650Z,99.90
2022-10-05T07:14:43.394Z,99.90
2022-10-05T07:17:16.657Z,99.90
2022-10-05T07:20:01.178Z,99.90
2022-10-05T07:22:55.585Z,99.90
2022-10-05T07:25:41.168Z,99.90
2022-10-05T07:28:28.763Z,99.90
2022-10-05T07:30:58.620Z,99.90
2022-10-05T07:33:42.649Z,99.90
2022-10-05T07:36:55.053Z,85.80
2022-10-05T07:39:59.535Z,99.90
2022-10-05T07:42:50.716Z,1.00
2022-10-05T07:45:25.008Z,99.90
2022-10-05T07:47:59.218Z,1.00
2022-10-05T07:50:29.415Z,1.00
2022-10-05T07:53:19.220Z,99.90
2022-10-05T07:55:55.831Z,12.60
2022-10-05T07:58:29.629Z,99.90
2022-10-05T08:01:06.111Z,99.90
2022-10-05T08:04:06.004Z,99.90
2022-10-05T08:06:42.604Z,99.90
2022-10-05T08:09:28.902Z,99.90
2022-10-05T08:12:02.996Z,99.90
2022-10-05T08:14:53.890Z,99.90
2022-10-05T08:17:50.602Z,1.00
2022-10-05T08:20:40.323Z,1.00
2022-10-05T08:23:25.961Z,1.00
2022-10-05T08:26:06.781Z,1.00
2022-10-05T08:28:39.429Z,1.00
2022-10-05T08:31:18.984Z,1.00
2022-10-05T08:34:09.742Z,1.00
2022-10-05T08:36:39.830Z,1.00
2022-10-05T08:39:18.727Z,1.00
2022-10-05T08:41:57.654Z,99.90
2022-10-05T08:44:30.857Z,99.90
2022-10-05T08:47:17.023Z,1.00
2022-10-05T08:50:17.512Z,1.00
2022-10-05T08:53:03.524Z,1.00
2022-10-05T08:56:04.348Z,1.00
2022-10-05T08:58:48.919Z,99.90
2022-10-05T09:01:56.997Z,99.90
2022-10-05T09:04:46.653Z,1.00
2022-10-05T09:07:29.496Z,1.00
2022-10-05T09:10:02.750Z,1.00
2022-10-05T09:13:13.135Z,99.90
2022-10-05T09:16:18.919Z,99.90
2022-10-05T09:19:00.376Z,99.90
2022-10-05T09:21:36.410Z,99.90
2022-10-05T09:24:22.982Z,99.90
2022-10-05T09:27:36.715Z,22.00
2022-10-05T09:30:22.543Z,7.20
2022-10-05T09:32:49.837Z,18.80
2022-10-05T09:35:41.575Z,8.80
2022-10-05T09:38:36.527Z,1.00
2022-10-05T09:41:22.720Z,1.00
2022-10-05T09:44:05.268Z,1.00
2022-10-05T09:46:42.313Z,1.00
2022-10-05T09:49:16.853Z,1.00
2022-10-05T09:52:02.637Z,1.00
2022-10-05T09:55:03.148Z,1.00
2022-10-05T09:57:59.375Z,1.00
2022-10-05T10:01:08.949Z,1.00
2022-10-05T10:04:20.508Z,1.00
2022-10-05T10:07:11.712Z,99.90
2022-10-05T10:10:38.999Z,99.90
2022-10-05T10:13:20.205Z,99.90
2022-10-05T10:15:57.796Z,99.90
2022-10-05T10:18:40.235Z,99.90
2022-10-05T10:21:39.833Z,99.90
2022-10-05T10:24:25.076Z,99.90
2022-10-05T10:26:52.564Z,99.90
2022-10-05T10:29:33.925Z,99.90
2022-10-05T10:32:20.598Z,99.90
2022-10-05T10:35:22.172Z,99.90
2022-10-05T10:38:20.327Z,99.90
2022-10-05T10:41:12.202Z,99.90
2022-10-05T10:44:03.751Z,99.90
2022-10-05T10:46:49.974Z,99.90
2022-10-05T10:49:54.458Z,99.90
2022-10-05T10:52:58.290Z,99.90
2022-10-05T10:55:35.328Z,99.90
2022-10-05T11:01:18.917Z,99.90
2022-10-05T11:04:16.772Z,99.90
2022-10-05T11:07:01.552Z,99.90
2022-10-05T11:09:41.559Z,99.90
2022-10-05T11:12:43.236Z,85.20
2022-10-05T11:15:39.348Z,54.70
2022-10-05T11:18:34.984Z,46.90
2022-10-05T11:21:22.157Z,24.30
2022-10-05T11:24:27.231Z,30.30
2022-10-05T11:27:15.941Z,47.10
2022-10-05T11:30:02.186Z,54.00
2022-10-05T11:32:48.061Z,53.40
2022-10-05T11:35:32.830Z,46.70
2022-10-05T11:38:03.007Z,9.70
2022-10-05T11:41:09.759Z,4.50
2022-10-05T11:43:42.506Z,11.10
2022-10-05T11:46:27.561Z,13.50
2022-10-05T11:49:00.826Z,7.80
2022-10-05T11:51:30.829Z,5.90
2022-10-05T11:54:21.700Z,4.20
2022-10-05T11:56:57.856Z,1.00
2022-10-05T11:59:50.597Z,1.00
2022-10-05T12:02:38.839Z,1.00
2022-10-05T12:05:10.871Z,1.00
2022-10-05T12:08:01.224Z,1.00
2022-10-05T12:10:55.428Z,1.00
2022-10-05T12:13:52.071Z,1.00
2022-10-05T12:16:41.662Z,1.00
2022-10-05T12:19:16.520Z,1.00
2022-10-05T12:22:01.742Z,1.00
2022-10-05T12:24:37.926Z,1.00
2022-10-05T12:27:18.889Z,1.00
2022-10-05T12:30:05.842Z,1.00
2022-10-05T12:32:41.301Z,1.00
2022-10-05T12:35:53.513Z,1.00
2022-10-05T12:38:38.116Z,1.00
2022-10-05T12:41:19.857Z,1.00
2022-10-05T12:43:55.421Z,1.00
2022-10-05T12:46:46.886Z,1.00
2022-10-05T12:49:36.582Z,1.00
2022-10-05T12:52:07.024Z,1.00
2022-10-05T12:55:00.057Z,1.00
2022-10-05T12:57:42.875Z,1.00
2022-10-05T13:00:22.493Z,1.00
2022-10-05T13:03:03.734Z,1.00
2022-10-05T13:05:59.076Z,1.00
2022-10-05T13:08:58.735Z,1.00
2022-10-05T13:11:39.529Z,1.00
2022-10-05T13:14:12.831Z,1.00
2022-10-05T13:16:45.852Z,1.00
2022-10-05T13:19:30.287Z,1.00
2022-10-05T13:22:15.444Z,1.00
2022-10-05T13:24:59.614Z,1.00
2022-10-05T13:27:35.671Z,1.00
2022-10-05T13:30:11.426Z,1.00
2022-10-05T13:32:58.527Z,1.00
2022-10-05T13:35:29.878Z,1.00
2022-10-05T13:38:03.054Z,1.00
2022-10-05T13:40:40.208Z,1.00
2022-10-05T13:43:21.769Z,1.00
2022-10-05T13:46:02.098Z,1.00
2022-10-05T13:48:44.318Z,1.00
2022-10-05T13:51:28.858Z,1.00
2022-10-05T13:54:05.470Z,1.00
2022-10-05T13:56:39.547Z,1.00
2022-10-05T13:59:07.530Z,1.00
2022-10-05T14:01:59.378Z,1.00
2022-10-05T14:04:53.578Z,1.00
2022-10-05T14:07:26.357Z,1.00
2022-10-05T14:09:53.854Z,1.00
2022-10-05T14:12:23.363Z,1.00
2022-10-05T14:14:56.941Z,1.00
2022-10-05T14:17:33.329Z,1.00
2022-10-05T14:20:03.593Z,1.00
2022-10-05T14:22:41.926Z,1.00
2022-10-05T14:25:09.550Z,1.00
2022-10-05T14:27:49.279Z,1.00
2022-10-05T14:30:22.229Z,1.00
2022-10-05T14:32:56.292Z,1.00
2022-10-05T14:35:28.666Z,1.00
2022-10-05T14:38:02.311Z,1.00
2022-10-05T14:40:33.924Z,1.00
2022-10-05T14:43:16.505Z,1.00
2022-10-05T14:45:56.490Z,8.80
2022-10-05T14:48:28.093Z,20.20
2022-10-05T14:50:59.499Z,33.00
2022-10-05T14:53:43.670Z,51.20
2022-10-05T14:56:44.106Z,69.60
2022-10-05T14:59:41.261Z,99.10
2022-10-05T15:02:45.142Z,99.90
2022-10-05T15:05:31.302Z,99.90
2022-10-05T15:08:24.309Z,99.90
2022-10-05T15:11:00.536Z,99.90
2022-10-05T15:13:34.639Z,99.90
2022-10-05T15:16:17.393Z,99.90
2022-10-05T15:19:04.470Z,99.90
2022-10-05T15:21:55.308Z,1.00
2022-10-05T15:24:29.175Z,1.00
2022-10-05T15:27:02.323Z,1.00
2022-10-05T15:29:55.709Z,1.00
2022-10-05T15:32:41.734Z,20.80
2022-10-05T15:35:36.836Z,78.10
2022-10-05T15:38:21.059Z,99.90
2022-10-05T15:40:51.071Z,99.90
2022-10-05T15:43:21.679Z,99.90
2022-10-05T15:46:04.260Z,99.90
2022-10-05T15:49:26.966Z,1.00
2022-10-05T15:52:24.039Z,1.00
2022-10-05T15:55:23.107Z,1.00
2022-10-05T15:58:27.062Z,33.70
2022-10-05T16:01:18.607Z,99.90
2022-10-05T16:03:58.900Z,99.90
2022-10-05T16:07:03.284Z,99.90
2022-10-05T16:09:45.178Z,1.00
2022-10-05T16:12:50.543Z,1.00
2022-10-05T16:15:30.036Z,67.00
2022-10-05T16:18:23.239Z,30.00
2022-10-05T16:21:14.496Z,99.90
2022-10-05T16:23:59.456Z,99.90
2022-10-05T16:26:32.785Z,99.90
2022-10-05T16:29:18.425Z,1.00
2022-10-05T16:31:59.115Z,1.00
2022-10-05T16:34:49.105Z,20.00
2022-10-05T16:37:44.452Z,99.90
2022-10-05T16:40:28.478Z,99.90
2022-10-05T16:43:19.435Z,99.90
2022-10-05T16:46:13.003Z,1.00
2022-10-05T16:49:04.416Z,1.00
2022-10-05T16:51:42.143Z,1.00
2022-10-05T16:54:14.736Z,1.00
2022-10-05T16:56:48.213Z,1.00
2022-10-05T16:59:56.875Z,1.00
2022-10-05T17:02:39.543Z,1.00
2022-10-05T17:05:48.018Z,1.00
2022-10-05T17:08:33.536Z,1.00
2022-10-05T17:11:12.366Z,99.90
2022-10-05T17:14:05.158Z,1.00
2022-10-05T17:16:57.604Z,1.00
2022-10-05T17:19:32.892Z,1.00
2022-10-05T17:22:08.888Z,1.00
2022-10-05T17:24:58.604Z,1.00
2022-10-05T17:27:53.676Z,1.00
2022-10-05T17:30:32.173Z,1.00
2022-10-05T17:33:17.149Z,99.90
2022-10-05T17:35:52.074Z,1.00
2022-10-05T17:38:31.427Z,1.00
2022-10-05T17:41:11.589Z,1.00
2022-10-05T17:43:39.189Z,36.60
2022-10-05T17:46:09.335Z,99.90
2022-10-05T17:48:43.334Z,99.90
2022-10-05T17:51:47.215Z,1.00
2022-10-05T17:54:45.112Z,1.00
2022-10-05T17:57:18.360Z,1.00
2022-10-05T17:59:55.956Z,1.00
2022-10-05T18:02:39.928Z,1.00
2022-10-05T18:05:12.655Z,54.20
2022-10-05T18:07:41.712Z,99.90
2022-10-05T18:10:11.880Z,69.60
2022-10-05T18:12:41.897Z,1.00
2022-10-05T18:15:09.282Z,1.00
2022-10-05T18:17:43.930Z,1.00
2022-10-05T18:20:30.253Z,1.00
2022-10-05T18:23:03.549Z,1.00
2022-10-05T18:25:53.242Z,33.50
2022-10-05T18:28:54.307Z,90.70
2022-10-05T18:31:30.765Z,48.90
2022-10-05T18:34:10.159Z,81.70
2022-10-05T18:37:09.801Z,51.90
2022-10-05T18:39:40.173Z,92.40
2022-10-05T18:42:29.696Z,99.90
2022-10-05T18:45:06.611Z,1.00
2022-10-05T18:47:45.416Z,1.00
2022-10-05T18:50:28.987Z,25.00
2022-10-05T18:53:08.355Z,1.00
2022-10-05T18:55:41.069Z,1.00
2022-10-05T18:58:35.971Z,99.90
2022-10-05T19:01:42.497Z,99.90
2022-10-05T19:04:22.583Z,99.90
2022-10-05T19:07:29.549Z,99.90
2022-10-05T19:10:18.526Z,99.90
2022-10-05T19:12:59.361Z,1.00
2022-10-05T19:16:00.376Z,21.60
2022-10-05T19:18:40.728Z,99.90
2022-10-05T19:21:42.189Z,95.10
2022-10-05T19:24:18.409Z,28.80
2022-10-05T19:27:08.297Z,99.90
2022-10-05T19:30:03.742Z,99.90
2022-10-05T19:33:09.425Z,99.90
2022-10-05T19:35:58.445Z,99.90
2022-10-05T19:38:41.482Z,1.00
2022-10-05T19:41:16.152Z,99.90
2022-10-05T19:44:08.093Z,1.00
2022-10-05T19:46:55.961Z,1.00
2022-10-05T19:49:49.161Z,1.00
2022-10-05T19:52:26.625Z,1.00
2022-10-05T19:55:11.548Z,99.90
2022-10-05T19:57:56.399Z,99.90
2022-10-05T20:00:31.446Z,1.00
2022-10-05T20:03:15.874Z,99.90
2022-10-05T20:05:43.603Z,99.90
2022-10-05T20:08:19.253Z,1.00
2022-10-05T20:11:04.805Z,99.90
2022-10-05T20:13:35.216Z,99.90
2022-10-05T20:16:46.768Z,99.90
2022-10-05T20:19:51.384Z,74.10
2022-10-05T20:22:35.499Z,99.90
2022-10-05T20:25:25.605Z,99.90
2022-10-05T20:27:57.219Z,1.00
2022-10-05T20:30:29.264Z,37.80
2022-10-05T20:32:58.436Z,99.90
2022-10-05T20:35:33.846Z,99.90
2022-10-05T20:38:01.328Z,99.90
2022-10-05T20:40:31.330Z,99.90
2022-10-05T20:42:59.036Z,99.90
2022-10-05T20:45:26.478Z,99.90
2022-10-05T20:47:54.001Z,99.90
2022-10-05T20:50:22.317Z,99.90
2022-10-05T20:52:49.794Z,99.90
2022-10-05T20:55:17.232Z,99.90
2022-10-05T20:57:46.330Z,99.90
2022-10-05T21:00:14.020Z,1.00
2022-10-05T21:02:41.559Z,1.00
2022-10-05T21:05:09.781Z,1.00
2022-10-05T21:07:37.249Z,43.20
2022-10-05T21:10:05.177Z,99.90
2022-10-05T21:12:34.811Z,99.90
2022-10-05T21:15:04.919Z,99.90
2022-10-05T21:17:35.282Z,99.90
2022-10-05T21:20:02.698Z,99.90
2022-10-05T21:22:30.100Z,99.90
2022-10-05T21:24:58.526Z,99.90
2022-10-05T21:27:25.955Z,99.90
2022-10-05T21:29:53.290Z,99.90
2022-10-05T21:32:20.675Z,99.90
2022-10-05T21:34:48.046Z,99.90
2022-10-05T21:37:15.573Z,1.00
2022-10-05T21:39:42.867Z,1.00
2022-10-05T21:42:10.252Z,1.00
2022-10-05T21:44:37.554Z,1.00
2022-10-05T21:47:07.001Z,1.00
2022-10-05T21:49:35.796Z,1.00
2022-10-05T21:52:05.389Z,99.90
2022-10-05T21:54:33.843Z,99.90
2022-10-05T21:57:01.886Z,99.90
2022-10-05T21:59:33.007Z,1.00
2022-10-05T22:02:00.503Z,1.00
2022-10-05T22:04:28.105Z,1.00
2022-10-05T22:06:55.962Z,1.00
2022-10-05T22:09:23.649Z,1.00
2022-10-05T22:11:51.476Z,99.90
2022-10-05T22:14:18.895Z,99.90
2022-10-05T22:16:46.326Z,99.90
2022-10-05T22:19:18.250Z,1.00
2022-10-05T22:21:45.680Z,1.00
2022-10-05T22:24:13.191Z,1.00
2022-10-05T22:26:43.689Z,1.00
2022-10-05T22:29:11.309Z,1.00
2022-10-05T22:31:39.363Z,1.00
2022-10-05T22:34:06.800Z,1.00
2022-10-05T22:36:35.669Z,1.00
2022-10-05T22:39:03.703Z,1.00
2022-10-05T22:41:31.072Z,1.00
2022-10-05T22:43:58.532Z,1.00
2022-10-05T22:46:25.976Z,1.00
2022-10-05T22:48:53.345Z,1.00
2022-10-05T22:51:20.748Z,1.00
2022-10-05T22:53:48.105Z,1.00
2022-10-05T22:56:15.765Z,1.00
2022-10-05T22:58:44.240Z,1.00
2022-10-05T23:01:14.899Z,1.00
2022-10-05T23:03:42.871Z,1.00
2022-10-05T23:06:13.077Z,1.00
2022-10-05T23:08:41.797Z,1.00
2022-10-05T23:11:15.062Z,1.00
2022-10-05T23:13:42.390Z,99.90
2022-10-05T23:16:15.547Z,99.90
2022-10-05T23:18:43.852Z,99.90
2022-10-05T23:21:11.800Z,99.90
2022-10-05T23:23:41.163Z,99.90
2022-10-05T23:26:10.827Z,99.90
2022-10-05T23:28:40.102Z,1.00
2022-10-05T23:31:08.575Z,1.00
2022-10-05T23:33:36.329Z,99.90
2022-10-05T23:36:09.972Z,99.90
2022-10-05T23:38:37.733Z,99.90
2022-10-05T23:41:05.900Z,47.20
2022-10-05T23:43:33.774Z,1.00
2022-10-05T23:46:02.534Z,99.90
2022-10-05T23:48:31.522Z,1.00
2022-10-05T23:50:59.427Z,99.90
2022-10-05T23:53:26.824Z,99.90
2022-10-05T23:55:55.168Z,99.90
2022-10-05T23:58:23.339Z,99.90
